logo tempoitalia

Diretta Meteo Zadar-Zemunik, Croazialunedì 31 agosto ore 07:00

Mappa
Sereno 19 °C Sereno 24 Ore: T.min 18 T.max 34
Ponente Nord Km/h 5.5 Punto di rugiada: 17 °C Umidità: 88% Visibilità: 10 Km
Il sole sorge alle: 06:20 Il sole tramonta alle: 19:37
31 Agosto 2026 07:00 tempo osservato: Sereno Sereno 19 88 1013 vento: Nord N 5.5
31 Agosto 2026 06:30 tempo osservato: Sereno Sereno 18 93 1013 vento: Nord N 3.7
31 Agosto 2026 06:00 tempo osservato: Sereno Sereno 18 93 1013 vento: Nord N 1.8
31 Agosto 2026 05:30 tempo osservato: Sereno Sereno 19 88 1013 vento: Nord N 1.8
31 Agosto 2026 05:00 tempo osservato: Sereno Sereno 19 88 1013 vento: Nord N 1.8
31 Agosto 2026 04:30 tempo osservato: Sereno Sereno 20 88 1014 vento: Nord N 0
31 Agosto 2026 04:00 tempo osservato: Sereno Sereno 21 82 1014 vento: Nord N 5.5
31 Agosto 2026 03:30 tempo osservato: Sereno Sereno 19 93 1014 vento: Nord N 3.7
31 Agosto 2026 03:00 tempo osservato: Sereno Sereno 21 82 1014 vento: Nord N 1.8
31 Agosto 2026 02:30 tempo osservato: Sereno Sereno 20 93 1014 vento: Nord N 1.8
31 Agosto 2026 02:00 tempo osservato: Sereno Sereno 20 88 1014 vento: Nord N 1.8
31 Agosto 2026 01:30 tempo osservato: Sereno Sereno 21 88 1014 vento: Nord N 5.5
31 Agosto 2026 01:00 tempo osservato: Sereno Sereno 21 88 1014 vento: Nord N 3.7
31 Agosto 2026 00:30 tempo osservato: Sereno Sereno 22 83 1014 vento: Nord N 1.8
31 Agosto 2026 00:00 tempo osservato: Sereno Sereno 22 83 1014 vento: Nord N 3.7
30 Agosto 2026 23:30 tempo osservato: Sereno Sereno 22 83 1014 vento: Nord N 3.7
30 Agosto 2026 23:00 tempo osservato: Sereno Sereno 24 78 1014 vento: Nord N 3.7
30 Agosto 2026 22:30 tempo osservato: Sereno Sereno 24 73 1014 vento: Nord N 3.7
30 Agosto 2026 22:00 tempo osservato: Sereno Sereno 25 69 1014 vento: Nord O/NO 9.3
30 Agosto 2026 21:30 tempo osservato: Sereno Sereno 25 69 1014 vento: Nord O/NO 9.3
30 Agosto 2026 21:00 tempo osservato: Sereno Sereno 26 61 1014 vento: Nord NO 9.3
30 Agosto 2026 20:30 tempo osservato: Sereno Sereno 26 61 1013 vento: Nord N 9.3
30 Agosto 2026 20:00 tempo osservato: Sereno Sereno 28 54 1013 vento: Nord N/NO 7.4
30 Agosto 2026 19:30 tempo osservato: Sereno Sereno 30 48 1013 vento: Nord NO 11.1
30 Agosto 2026 19:00 tempo osservato: Sereno Sereno 31 45 1013 vento: Nord N/NO 11.1
30 Agosto 2026 18:30 tempo osservato: Sereno Sereno 32 40 1013 vento: Nord O 11.1
30 Agosto 2026 18:00 tempo osservato: Sereno Sereno 33 38 1013 vento: Nord O 13
30 Agosto 2026 17:30 tempo osservato: Sereno Sereno 33 38 1013 vento: Nord O 11.1
30 Agosto 2026 17:00 tempo osservato: Sereno Sereno 33 36 1013 vento: Nord O 13
30 Agosto 2026 16:30 tempo osservato: Sereno Sereno 33 36 1013 vento: Nord O 13
30 Agosto 2026 16:00 tempo osservato: Sereno Sereno 34 32 1013 vento: Nord SO 13
30 Agosto 2026 15:30 tempo osservato: Sereno Sereno 33 36 1014 vento: Nord O 16.7
30 Agosto 2026 15:00 tempo osservato: Sereno Sereno 34 34 1014 vento: Nord SO 13
30 Agosto 2026 14:30 tempo osservato: Poco Nuvoloso Poco Nuvoloso 33 36 1014 vento: Nord SO 14.8
30 Agosto 2026 14:00 tempo osservato: Poco Nuvoloso Poco Nuvoloso 34 34 1014 vento: Nord S/SO 13
30 Agosto 2026 13:30 tempo osservato: Poco Nuvoloso Poco Nuvoloso 33 36 1014 vento: Nord SO 11.1
30 Agosto 2026 13:00 tempo osservato: Poco Nuvoloso Poco Nuvoloso 34 34 1014 vento: Nord O 9.3
30 Agosto 2026 12:30 tempo osservato: Poco Nuvoloso Poco Nuvoloso 33 36 1014 vento: Nord S/SO 9.3
30 Agosto 2026 12:00 tempo osservato: Sereno Sereno 34 34 1014 vento: Nord N 9.3
30 Agosto 2026 11:30 tempo osservato: Sereno Sereno 33 36 1014 vento: Nord N 9.3
30 Agosto 2026 11:00 tempo osservato: Sereno Sereno 33 36 1015 vento: Nord N 5.5
30 Agosto 2026 10:30 tempo osservato: Sereno Sereno 32 38 1015 vento: Nord S/SE 7.4
30 Agosto 2026 10:00 tempo osservato: Sereno Sereno 32 38 1015 vento: Nord S/SE 7.4
30 Agosto 2026 09:30 tempo osservato: Sereno Sereno 31 40 1014 vento: Nord N 5.5
30 Agosto 2026 09:00 tempo osservato: Sereno Sereno 29 45 1014 vento: Nord N 3.7
30 Agosto 2026 08:30 tempo osservato: Sereno Sereno 26 54 1014 vento: Nord N 3.7
30 Agosto 2026 08:00 tempo osservato: Sereno Sereno 24 64 1014 vento: Nord N 3.7